Time;durP1;ratioP1;P1;durP2;ratioP2;P2;SDS_P1;SDS_P2;PMS_P1;PMS_P2;Temp;Humidity;BMP_temperature;BMP_pressure;BME280_temperature;BME280_humidity;BME280_pressure;Samples;Min_cycle;Max_cycle;Signal;HPM_P1;HPM_P2
2022/04/04 00:02:18;;;;;;;9.93;6.47;;;;;;;;;;5093183;28;20174;-53
2022/04/04 00:04:44;;;;;;;7.93;6.50;;;1.50;99.90;;;;;;5093701;28;20174;-53
2022/04/04 00:07:09;;;;;;;6.50;5.80;;;1.30;99.90;;;;;;5093135;28;20288;-53
2022/04/04 00:09:35;;;;;;;7.17;5.60;;;1.40;99.90;;;;;;5092336;28;20178;-54
2022/04/04 00:12:01;;;;;;;6.87;6.10;;;1.50;99.90;;;;;;5092860;28;20201;-54
2022/04/04 00:14:26;;;;;;;8.00;6.40;;;1.40;99.90;;;;;;5093315;28;20174;-56
2022/04/04 00:16:52;;;;;;;8.70;6.80;;;1.10;99.90;;;;;;5092832;28;20477;-54
2022/04/04 00:19:18;;;;;;;8.50;6.33;;;1.40;99.90;;;;;;5093334;28;20185;-56
2022/04/04 00:21:44;;;;;;;7.80;6.00;;;1.40;99.90;;;;;;5093064;28;20408;-53
2022/04/04 00:24:10;;;;;;;6.63;5.90;;;1.40;99.90;;;;;;5092510;28;20174;-53
2022/04/04 00:26:35;;;;;;;7.33;5.80;;;1.40;99.90;;;;;;5093082;28;20436;-55
2022/04/04 00:29:01;;;;;;;9.37;6.30;;;;;;;;;;5092615;28;20207;-55
2022/04/04 00:31:27;;;;;;;7.47;5.93;;;1.40;99.90;;;;;;5093020;28;20230;-55
2022/04/04 00:33:53;;;;;;;8.00;5.87;;;1.40;99.90;;;;;;5092467;28;20174;-56
2022/04/04 00:36:19;;;;;;;6.60;5.90;;;1.10;99.90;;;;;;5093087;28;20550;-54
2022/04/04 00:38:44;;;;;;;6.57;5.83;;;1.30;99.90;;;;;;5092920;28;20170;-53
2022/04/04 00:41:13;;;;;;;8.97;6.10;;;1.10;99.90;;;;;;5092925;28;20170;-56
2022/04/04 00:43:39;;;;;;;7.47;6.30;;;1.10;99.90;;;;;;5092529;28;20230;-52
2022/04/04 00:46:05;;;;;;;7.23;6.23;;;1.10;99.90;;;;;;5092215;28;20436;-53
2022/04/04 00:48:31;;;;;;;8.60;6.13;;;;;;;;;;5092992;28;20611;-56
2022/04/04 00:50:56;;;;;;;7.17;5.73;;;1.20;99.90;;;;;;5092002;28;20461;-52
2022/04/04 00:53:22;;;;;;;7.67;5.93;;;0.90;99.90;;;;;;5092556;28;20205;-53
2022/04/04 00:55:48;;;;;;;6.90;6.20;;;1.00;99.90;;;;;;5092513;28;20197;-51
2022/04/04 00:58:17;;;;;;;8.80;6.53;;;0.60;99.90;;;;;;5092618;28;20193;-51
2022/04/04 01:00:45;;;;;;;7.47;6.17;;;0.40;99.90;;;;;;5092634;28;20174;-52
2022/04/04 01:03:10;;;;;;;8.97;6.80;;;0.60;99.90;;;;;;5091990;28;20399;-52
2022/04/04 01:05:36;;;;;;;8.37;6.63;;;;;;;;;;5092690;28;20410;-57
2022/04/04 01:08:02;;;;;;;7.87;6.40;;;0.70;99.90;;;;;;5092320;28;20261;-56
2022/04/04 01:10:29;;;;;;;7.47;6.43;;;0.80;99.90;;;;;;5092622;28;20170;-52
2022/04/04 01:12:55;;;;;;;8.60;6.30;;;0.80;99.90;;;;;;5091876;28;20308;-56
2022/04/04 01:15:23;;;;;;;9.07;6.63;;;1.10;99.90;;;;;;5092220;28;20929;-53
2022/04/04 01:17:50;;;;;;;8.43;6.40;;;0.80;99.90;;;;;;5092282;28;20822;-55
2022/04/04 01:20:16;;;;;;;6.67;5.97;;;1.00;99.90;;;;;;5092061;28;20404;-55
2022/04/04 01:22:49;;;;;;;7.47;6.37;;;1.00;99.90;;;;;;5091739;28;20977;-54
2022/04/04 01:25:21;;;;;;;7.70;6.60;;;1.10;99.90;;;;;;5092008;28;20252;-55
2022/04/04 01:27:46;;;;;;;7.83;6.67;;;1.00;99.90;;;;;;5092471;28;20785;-52
2022/04/04 01:30:13;;;;;;;7.33;6.47;;;1.00;99.90;;;;;;5091775;28;20412;-54
2022/04/04 01:32:39;;;;;;;8.13;6.70;;;0.90;99.90;;;;;;5091344;28;20288;-52
2022/04/04 01:35:05;;;;;;;7.63;6.83;;;;;;;;;;5091769;28;20973;-54
2022/04/04 01:37:31;;;;;;;9.77;6.47;;;0.60;99.90;;;;;;5091938;28;20662;-53
2022/04/04 01:39:57;;;;;;;9.77;7.90;;;0.60;99.90;;;;;;5091659;28;20411;-52
2022/04/04 01:42:22;;;;;;;8.67;6.63;;;0.50;99.90;;;;;;5091151;28;20174;-53
2022/04/04 01:44:51;;;;;;;8.63;7.07;;;-0.60;99.90;;;;;;5092102;28;20174;-54
2022/04/04 01:47:16;;;;;;;8.07;6.87;;;0.80;99.90;;;;;;5091530;28;20242;-57
2022/04/04 01:49:42;;;;;;;9.10;7.60;;;0.80;99.90;;;;;;5091962;28;20506;-52
2022/04/04 01:52:08;;;;;;;9.10;7.57;;;0.80;99.90;;;;;;5091040;28;20204;-53
2022/04/04 01:54:33;;;;;;;9.33;7.23;;;0.80;99.90;;;;;;5091730;28;20174;-52
2022/04/04 01:56:59;;;;;;;8.53;7.63;;;0.90;99.90;;;;;;5091832;28;20277;-53
2022/04/04 01:59:25;;;;;;;9.63;7.97;;;0.90;99.90;;;;;;5091338;28;20172;-53
2022/04/04 02:01:51;;;;;;;9.43;8.27;;;0.90;99.90;;;;;;5091844;28;20174;-52
2022/04/04 02:04:17;;;;;;;10.60;7.97;;;0.90;99.90;;;;;;5089836;28;20758;-52
2022/04/04 02:06:43;;;;;;;10.43;8.37;;;0.80;99.90;;;;;;5091660;28;20688;-52
2022/04/04 02:09:09;;;;;;;10.50;8.10;;;0.90;99.90;;;;;;5091240;28;20166;-52
2022/04/04 02:11:34;;;;;;;9.07;7.60;;;0.70;99.90;;;;;;5091250;28;20170;-52
2022/04/04 02:14:02;;;;;;;9.20;8.17;;;0.80;99.90;;;;;;5091321;28;20495;-54
2022/04/04 02:16:28;;;;;;;10.37;8.07;;;0.90;99.90;;;;;;5091133;28;20198;-52
2022/04/04 02:18:54;;;;;;;8.90;7.87;;;0.80;99.90;;;;;;5091696;28;20503;-53
2022/04/04 02:21:19;;;;;;;8.47;7.57;;;0.90;99.90;;;;;;5091138;28;20486;-52
2022/04/04 02:23:45;;;;;;;9.67;7.77;;;0.70;99.90;;;;;;5091244;28;20170;-54
2022/04/04 02:26:11;;;;;;;11.03;7.93;;;0.70;99.90;;;;;;5089951;28;20217;-52
2022/04/04 02:28:37;;;;;;;11.93;8.40;;;0.50;99.90;;;;;;5091663;28;20169;-54
2022/04/04 02:31:02;;;;;;;8.83;7.50;;;0.50;99.90;;;;;;5091182;28;20166;-53
2022/04/04 02:33:29;;;;;;;8.83;7.53;;;0.60;99.90;;;;;;5091130;28;20253;-52
2022/04/04 02:35:55;;;;;;;9.67;8.03;;;0.70;99.90;;;;;;5091544;28;20693;-55
2022/04/04 02:38:26;;;;;;;7.90;7.03;;;0.60;99.90;;;;;;5091314;28;20408;-56
2022/04/04 02:40:53;;;;;;;9.13;7.40;;;0.50;99.90;;;;;;5091532;28;20248;-56
2022/04/04 02:43:20;;;;;;;9.17;7.80;;;0.70;99.90;;;;;;5090837;28;20400;-54
2022/04/04 02:45:45;;;;;;;9.77;7.50;;;0.70;99.90;;;;;;5091376;28;20939;-53
2022/04/04 02:48:11;;;;;;;8.40;7.13;;;0.60;99.90;;;;;;5091049;28;20418;-56
2022/04/04 02:50:37;;;;;;;8.27;7.20;;;0.60;99.90;;;;;;5090990;28;20546;-55
2022/04/04 02:53:03;;;;;;;9.27;7.80;;;0.60;99.90;;;;;;5093783;28;20205;-56
2022/04/04 02:58:14;;;;;;;10.63;7.70;;;0.60;99.90;;;;;;5095242;28;20411;-54
2022/04/04 03:00:40;;;;;;;8.50;7.10;;;0.30;99.90;;;;;;5094530;28;20400;-54
2022/04/04 03:03:06;;;;;;;8.63;7.50;;;0.40;99.90;;;;;;5094671;28;20912;-55
2022/04/04 03:05:31;;;;;;;8.43;7.37;;;1.00;99.90;;;;;;5094421;28;20411;-57
2022/04/04 03:07:57;;;;;;;8.47;7.57;;;0.40;99.90;;;;;;5094883;28;20706;-56
2022/04/04 03:10:23;;;;;;;9.63;7.90;;;0.50;99.90;;;;;;5094457;28;20550;-54
2022/04/04 03:12:50;;;;;;;7.90;7.10;;;0.40;99.90;;;;;;5093766;28;20190;-55
2022/04/04 03:15:19;;;;;;;9.47;7.40;;;0.60;99.90;;;;;;5094763;28;20169;-55
2022/04/04 03:17:48;;;;;;;8.53;7.03;;;0.50;99.90;;;;;;5094110;28;20426;-52
2022/04/04 03:20:15;;;;;;;11.47;8.37;;;0.50;99.90;;;;;;5094622;28;20407;-53
2022/04/04 03:22:46;;;;;;;9.23;8.13;;;0.60;99.90;;;;;;5093948;28;20792;-53
2022/04/04 03:25:13;;;;;;;9.87;8.03;;;0.50;99.90;;;;;;5094613;28;20411;-53
2022/04/04 03:27:40;;;;;;;10.97;7.90;;;0.50;99.90;;;;;;5093762;28;20920;-52
2022/04/04 03:30:09;;;;;;;10.37;8.90;;;0.50;99.90;;;;;;5094302;28;20465;-52
2022/04/04 03:32:34;;;;;;;10.47;8.40;;;0.40;99.90;;;;;;5093550;28;20462;-54
2022/04/04 03:35:01;;;;;;;12.57;9.40;;;0.50;99.90;;;;;;5094435;28;20760;-53
2022/04/04 03:37:27;;;;;;;10.33;8.27;;;0.50;99.90;;;;;;5094215;28;20178;-52
2022/04/04 03:39:53;;;;;;;10.23;8.90;;;;;;;;;;5093883;28;20909;-55
2022/04/04 03:42:19;;;;;;;11.40;9.40;;;0.50;99.90;;;;;;5093241;28;20412;-52
2022/04/04 03:44:45;;;;;;;10.87;8.87;;;0.40;99.90;;;;;;5093741;28;20172;-54
2022/04/04 03:47:11;;;;;;;11.23;8.93;;;0.20;99.90;;;;;;5093907;28;20424;-54
2022/04/04 03:49:37;;;;;;;14.20;9.83;;;0.60;99.90;;;;;;5093561;28;20169;-54
2022/04/04 03:52:04;;;;;;;11.63;9.17;;;0.00;99.90;;;;;;5093766;28;20213;-51
2022/04/04 03:54:30;;;;;;;11.53;9.23;;;0.00;99.90;;;;;;5093492;28;20416;-52
2022/04/04 03:56:57;;;;;;;11.90;9.23;;;0.00;99.90;;;;;;5092562;28;20427;-51
2022/04/04 03:59:23;;;;;;;12.27;9.00;;;;;;;;;;5093888;28;20227;-53
2022/04/04 04:01:48;;;;;;;11.17;8.53;;;0.10;99.90;;;;;;5093221;28;20811;-52
2022/04/04 04:04:14;;;;;;;14.57;11.67;;;0.10;99.90;;;;;;5092791;28;20180;-52
2022/04/04 04:06:39;;;;;;;12.47;10.50;;;0.30;99.90;;;;;;5092877;28;20678;-52
2022/04/04 04:09:05;;;;;;;12.87;9.40;;;0.20;99.90;;;;;;5093614;28;20177;-56
2022/04/04 04:11:31;;;;;;;9.83;8.77;;;0.10;99.90;;;;;;5093621;28;20585;-56
2022/04/04 04:13:57;;;;;;;26.10;10.07;;;;;;;;;;5093118;28;20221;-56
2022/04/04 04:16:23;;;;;;;15.63;10.23;;;0.20;99.90;;;;;;5094032;28;20209;-56
2022/04/04 04:18:49;;;;;;;14.87;12.43;;;-0.40;99.90;;;;;;5093443;28;20476;-53
2022/04/04 04:21:15;;;;;;;48.93;16.00;;;-0.10;99.90;;;;;;5093173;28;20412;-53
2022/04/04 04:23:42;;;;;;;12.90;10.97;;;-0.20;99.90;;;;;;5092434;28;20173;-54
2022/04/04 04:26:09;;;;;;;11.73;10.20;;;-0.40;99.90;;;;;;5093132;28;20190;-52
2022/04/04 04:28:35;;;;;;;11.77;8.73;;;-0.20;99.90;;;;;;5092854;28;20487;-52
2022/04/04 04:31:01;;;;;;;9.90;8.50;;;-0.20;99.90;;;;;;5091977;28;20415;-52
2022/04/04 04:33:27;;;;;;;11.07;8.80;;;-0.50;99.90;;;;;;5092201;28;20452;-52
2022/04/04 04:35:53;;;;;;;11.70;9.10;;;-0.20;99.90;;;;;;5092041;28;20185;-53
2022/04/04 04:38:18;;;;;;;13.53;9.30;;;-0.20;99.90;;;;;;5092359;28;20927;-52
2022/04/04 04:40:44;;;;;;;16.97;12.00;;;-0.30;99.90;;;;;;5092479;28;20598;-52
2022/04/04 04:43:10;;;;;;;15.03;11.70;;;0.00;99.90;;;;;;5092688;28;20185;-53
2022/04/04 04:45:35;;;;;;;16.63;11.90;;;0.00;99.90;;;;;;5091535;28;20178;-56
2022/04/04 04:48:01;;;;;;;12.10;9.73;;;-0.40;99.90;;;;;;5091395;28;20196;-54
2022/04/04 04:50:27;;;;;;;14.33;10.03;;;0.00;99.90;;;;;;5091511;28;20174;-55
2022/04/04 04:52:54;;;;;;;11.10;9.17;;;0.10;99.90;;;;;;5090811;28;20189;-51
2022/04/04 04:55:21;;;;;;;11.63;8.77;;;;;;;;;;5091916;28;20412;-53
2022/04/04 04:57:48;;;;;;;13.33;9.70;;;0.00;99.90;;;;;;5091465;28;20750;-52
2022/04/04 05:00:15;;;;;;;11.70;9.17;;;0.40;99.90;;;;;;5092682;28;20407;-52
2022/04/04 05:02:41;;;;;;;11.07;8.30;;;-0.10;99.90;;;;;;5091505;28;20408;-52
2022/04/04 05:05:07;;;;;;;10.97;8.63;;;-0.10;99.90;;;;;;5092563;28;20407;-54
2022/04/04 05:07:33;;;;;;;8.77;7.70;;;-0.10;99.90;;;;;;5092282;28;20202;-55
2022/04/04 05:09:59;;;;;;;8.90;7.83;;;-0.20;99.90;;;;;;5091080;28;20412;-53
2022/04/04 05:12:24;;;;;;;10.87;8.40;;;-0.60;99.90;;;;;;5091967;28;20529;-53
2022/04/04 05:14:50;;;;;;;10.27;7.73;;;-0.20;99.90;;;;;;5086726;28;20174;-53
2022/04/04 05:17:16;;;;;;;10.73;8.30;;;0.00;99.90;;;;;;5107470;22;20633;-46
2022/04/04 05:19:42;;;;;;;10.90;8.10;;;0.00;99.90;;;;;;5022361;28;20214;-45
2022/04/04 05:22:07;;;;;;;9.53;7.50;;;0.00;99.90;;;;;;5030746;28;20215;-45
2022/04/04 05:24:34;;;;;;;9.80;8.00;;;0.10;99.90;;;;;;5030450;28;20803;-44
2022/04/04 05:27:00;;;;;;;10.77;7.73;;;0.10;99.90;;;;;;5030039;28;20188;-43
2022/04/04 05:29:28;;;;;;;9.17;7.13;;;0.10;99.90;;;;;;5031878;28;20413;-44
2022/04/04 05:31:57;;;;;;;10.73;8.17;;;0.20;99.90;;;;;;5030845;28;20204;-44
2022/04/04 05:34:26;;;;;;;10.17;7.63;;;0.20;99.90;;;;;;5031370;28;20419;-44
2022/04/04 05:36:52;;;;;;;9.07;8.07;;;0.30;99.90;;;;;;5030019;28;20856;-45
2022/04/04 05:39:17;;;;;;;10.23;7.80;;;0.30;99.90;;;;;;5030619;28;20497;-44
2022/04/04 05:41:43;;;;;;;8.67;7.63;;;0.40;99.90;;;;;;5029616;28;20255;-44
2022/04/04 05:44:08;;;;;;;10.07;8.50;;;0.40;99.90;;;;;;5029917;28;20179;-45
2022/04/04 05:46:34;;;;;;;11.63;8.90;;;0.50;99.90;;;;;;5031861;28;20191;-45
2022/04/04 05:49:00;;;;;;;9.37;7.93;;;;;;;;;;5031295;28;20222;-47
2022/04/04 05:51:28;;;;;;;9.27;8.27;;;0.60;99.90;;;;;;5031779;28;20175;-46
2022/04/04 05:53:54;;;;;;;9.07;8.03;;;0.70;99.90;;;;;;5030940;28;20468;-47
2022/04/04 05:56:21;;;;;;;10.70;8.20;;;0.70;99.90;;;;;;5031543;28;20985;-44
2022/04/04 05:58:48;;;;;;;9.57;8.57;;;0.80;99.90;;;;;;5031432;28;20259;-47
2022/04/04 06:01:13;;;;;;;9.43;8.30;;;0.90;99.90;;;;;;5031680;28;20818;-47
2022/04/04 06:03:39;;;;;;;11.03;9.30;;;0.90;99.90;;;;;;5031228;28;20411;-45
2022/04/04 06:06:04;;;;;;;11.07;9.73;;;1.00;99.90;;;;;;5030113;28;20538;-46
2022/04/04 06:08:30;;;;;;;13.17;10.03;;;1.00;99.90;;;;;;5031307;28;20222;-50
2022/04/04 06:10:55;;;;;;;14.93;11.13;;;1.00;99.90;;;;;;5030995;28;20265;-47
2022/04/04 06:13:21;;;;;;;12.47;10.97;;;1.00;99.90;;;;;;5031119;28;20199;-48
2022/04/04 06:15:47;;;;;;;11.63;10.37;;;1.00;99.90;;;;;;5031019;28;20175;-49
2022/04/04 06:18:14;;;;;;;11.20;10.00;;;1.10;99.90;;;;;;5031017;28;20207;-51
2022/04/04 06:20:40;;;;;;;11.00;9.43;;;1.10;99.90;;;;;;5030998;28;20925;-55
2022/04/04 06:23:06;;;;;;;11.97;10.20;;;1.10;99.90;;;;;;5030102;28;20450;-50
2022/04/04 06:25:32;;;;;;;13.20;10.47;;;1.10;99.90;;;;;;5030804;28;20792;-48
2022/04/04 06:27:58;;;;;;;11.00;9.73;;;;;;;;;;5032985;28;20440;-53
2022/04/04 06:30:25;;;;;;;12.27;9.80;;;1.30;99.90;;;;;;5035423;28;20168;-55
2022/04/04 06:32:50;;;;;;;12.73;11.40;;;1.40;99.90;;;;;;5034697;28;20478;-52
2022/04/04 06:35:16;;;;;;;11.27;9.83;;;1.40;99.90;;;;;;5035287;28;20928;-51
2022/04/04 06:37:43;;;;;;;12.00;9.53;;;1.40;99.90;;;;;;5034683;28;20272;-52
2022/04/04 06:40:10;;;;;;;13.43;10.63;;;1.50;99.90;;;;;;5035047;28;20418;-49
2022/04/04 06:42:42;;;;;;;11.77;9.80;;;1.60;99.90;;;;;;5034731;28;20410;-53
2022/04/04 06:45:09;;;;;;;11.10;9.87;;;1.70;99.90;;;;;;5035170;28;20780;-55
2022/04/04 06:47:36;;;;;;;10.37;9.20;;;1.80;99.90;;;;;;5034990;28;21028;-54
2022/04/04 06:50:02;;;;;;;10.80;9.53;;;1.90;99.90;;;;;;5034730;28;20920;-49
2022/04/04 06:52:27;;;;;;;11.63;9.17;;;2.70;99.90;;;;;;5034202;28;20627;-49
2022/04/04 06:54:54;;;;;;;11.13;9.03;;;2.10;99.90;;;;;;5033999;28;20499;-53
2022/04/04 06:57:20;;;;;;;10.50;9.40;;;2.20;99.90;;;;;;5034798;28;20270;-55
2022/04/04 06:59:46;;;;;;;12.10;9.93;;;2.40;99.90;;;;;;5034595;28;20465;-53
2022/04/04 07:02:12;;;;;;;10.50;9.40;;;2.40;99.90;;;;;;5034731;28;20211;-50
2022/04/04 07:04:37;;;;;;;11.57;9.80;;;2.40;99.90;;;;;;5034324;28;20187;-51
2022/04/04 07:07:06;;;;;;;10.30;9.20;;;2.50;99.90;;;;;;5034526;28;20253;-55
2022/04/04 07:09:32;;;;;;;10.30;9.20;;;2.50;99.90;;;;;;5034731;28;20176;-47
2022/04/04 07:11:57;;;;;;;11.20;8.87;;;2.40;99.90;;;;;;5034173;28;20460;-47
2022/04/04 07:14:24;;;;;;;10.47;9.27;;;2.20;99.90;;;;;;5034357;28;20168;-48
2022/04/04 07:16:52;;;;;;;11.27;10.07;;;2.10;99.90;;;;;;5034011;28;20196;-48
2022/04/04 07:19:19;;;;;;;11.60;9.83;;;;;;;;;;5034374;28;20484;-48
2022/04/04 07:21:45;;;;;;;14.20;10.07;;;2.20;99.90;;;;;;5034131;28;20403;-47
2022/04/04 07:24:10;;;;;;;10.27;9.13;;;2.30;99.90;;;;;;5034112;28;20407;-47
2022/04/04 07:26:36;;;;;;;10.73;9.63;;;2.40;99.90;;;;;;5034009;28;20265;-49
2022/04/04 07:29:01;;;;;;;10.73;9.63;;;2.60;99.90;;;;;;5034277;28;20338;-49
2022/04/04 07:31:27;;;;;;;11.33;10.13;;;2.60;99.90;;;;;;5034241;28;20180;-47
2022/04/04 07:33:52;;;;;;;13.03;9.67;;;2.70;99.90;;;;;;5033567;28;20330;-47
2022/04/04 07:36:19;;;;;;;11.27;10.07;;;2.80;99.90;;;;;;5034101;28;20200;-47
2022/04/04 07:38:44;;;;;;;12.07;10.30;;;2.70;99.90;;;;;;5032929;28;20434;-48
2022/04/04 07:41:10;;;;;;;13.17;10.80;;;2.70;99.90;;;;;;5034057;28;20278;-47
2022/04/04 07:43:35;;;;;;;12.13;10.67;;;2.70;99.90;;;;;;5033468;28;20164;-47
2022/04/04 07:46:01;;;;;;;10.97;9.77;;;2.80;99.90;;;;;;5034076;28;20665;-49
2022/04/04 07:48:27;;;;;;;12.33;10.47;;;2.90;99.90;;;;;;5033598;28;20199;-47
2022/04/04 07:50:53;;;;;;;10.77;9.63;;;2.90;99.90;;;;;;5033061;28;20160;-47
2022/04/04 07:53:19;;;;;;;12.10;10.80;;;2.90;99.90;;;;;;5033445;28;20462;-47
2022/04/04 07:55:45;;;;;;;10.20;9.17;;;;;;;;;;5033555;28;20638;-47
2022/04/04 07:58:11;;;;;;;12.00;10.13;;;3.10;99.90;;;;;;5033758;28;20187;-47
2022/04/04 08:00:36;;;;;;;10.90;8.23;;;3.20;99.90;;;;;;5033343;28;20406;-47
2022/04/04 08:03:04;;;;;;;8.63;7.37;;;3.30;99.90;;;;;;5033120;28;20259;-50
2022/04/04 08:05:30;;;;;;;8.33;7.43;;;3.40;99.90;;;;;;5033359;28;20176;-48
2022/04/04 08:07:56;;;;;;;7.33;6.27;;;3.40;99.90;;;;;;5033346;28;20195;-47
2022/04/04 08:10:22;;;;;;;7.40;6.70;;;3.30;99.90;;;;;;5032770;28;20657;-47
2022/04/04 08:12:50;;;;;;;7.27;6.57;;;3.20;99.90;;;;;;5032945;28;20611;-46
2022/04/04 08:15:16;;;;;;;9.07;7.77;;;3.10;99.90;;;;;;5033362;28;20226;-47
2022/04/04 08:17:41;;;;;;;7.83;6.90;;;3.00;99.90;;;;;;5032881;28;20215;-47
2022/04/04 08:20:08;;;;;;;8.90;7.00;;;3.00;99.90;;;;;;5033561;28;20182;-48
2022/04/04 08:22:38;;;;;;;7.90;6.70;;;3.00;99.90;;;;;;5032839;28;20179;-47
2022/04/04 08:25:05;;;;;;;8.10;7.27;;;3.10;99.90;;;;;;5033313;28;20676;-49
2022/04/04 08:27:31;;;;;;;6.80;6.10;;;3.20;99.90;;;;;;5032890;28;20249;-47
2022/04/04 08:29:56;;;;;;;6.90;6.20;;;3.30;99.90;;;;;;5033181;28;20172;-47
2022/04/04 08:32:22;;;;;;;6.23;5.63;;;3.40;99.90;;;;;;5031787;28;20207;-50
2022/04/04 08:34:48;;;;;;;7.60;6.40;;;;;;;;;;5032621;28;20187;-47
2022/04/04 08:37:13;;;;;;;6.33;5.70;;;3.60;99.90;;;;;;5032967;28;20196;-47
2022/04/04 08:39:39;;;;;;;7.17;6.27;;;3.60;99.90;;;;;;5031557;28;20176;-49
2022/04/04 08:42:04;;;;;;;4.73;4.10;;;3.60;99.90;;;;;;5031651;28;20242;-47
2022/04/04 08:44:31;;;;;;;5.13;4.40;;;3.60;99.90;;;;;;5031219;28;20207;-47
2022/04/04 08:46:57;;;;;;;7.30;4.97;;;3.50;99.90;;;;;;5031440;28;20206;-48
2022/04/04 08:49:23;;;;;;;5.43;4.90;;;3.60;99.90;;;;;;5031106;28;20243;-48
2022/04/04 08:51:49;;;;;;;7.77;5.80;;;3.80;99.90;;;;;;5031325;28;20183;-46
2022/04/04 08:54:14;;;;;;;7.67;5.70;;;4.10;99.90;;;;;;5031027;28;20183;-47
2022/04/04 08:56:42;;;;;;;7.17;5.57;;;4.30;99.90;;;;;;5031359;28;20191;-48
2022/04/04 08:59:07;;;;;;;6.83;5.50;;;4.50;99.90;;;;;;5031232;28;20325;-50
2022/04/04 09:01:33;;;;;;;5.93;5.03;;;4.60;99.90;;;;;;5031154;28;20685;-47
2022/04/04 09:04:05;;;;;;;5.80;5.30;;;4.60;99.90;;;;;;5029658;28;20179;-49
2022/04/04 09:06:45;;;;;;;6.60;5.67;;;5.00;99.90;;;;;;5030655;28;20183;-48
2022/04/04 09:09:11;;;;;;;6.17;5.13;;;5.00;99.90;;;;;;5029473;28;20167;-49
2022/04/04 09:11:37;;;;;;;5.53;4.93;;;5.40;99.90;;;;;;5030847;28;20190;-47
2022/04/04 09:14:06;;;;;;;5.97;4.93;;;5.70;99.90;;;;;;5030744;28;20649;-46
2022/04/04 09:16:32;;;;;;;5.90;5.10;;;5.80;99.90;;;;;;5030830;28;20167;-48
2022/04/04 09:18:57;;;;;;;5.47;4.87;;;5.70;99.40;;;;;;5031018;28;20187;-48
2022/04/04 09:21:23;;;;;;;5.43;4.50;;;5.90;99.90;;;;;;5030721;28;20176;-50
2022/04/04 09:23:48;;;;;;;5.87;5.03;;;6.20;99.90;;;;;;5030953;28;20176;-51
2022/04/04 09:26:38;;;;;;;5.20;4.70;;;5.80;99.20;;;;;;5031749;28;20176;-49
2022/04/04 09:29:06;;;;;;;5.27;4.77;;;6.10;98.30;;;;;;5032184;28;20545;-47
2022/04/04 09:31:32;;;;;;;5.93;5.13;;;6.30;98.80;;;;;;5031866;28;20186;-47
2022/04/04 09:34:01;;;;;;;5.63;5.03;;;6.50;99.30;;;;;;5031336;28;20252;-47
2022/04/04 09:36:27;;;;;;;4.80;4.40;;;6.00;99.90;;;;;;5031983;28;20183;-48
2022/04/04 09:38:55;;;;;;;5.83;5.23;;;6.20;99.90;;;;;;5030834;28;20179;-47
2022/04/04 09:41:21;;;;;;;5.40;4.90;;;5.90;98.00;;;;;;5036972;28;20183;-50
2022/04/04 09:43:59;;;;;;;5.40;4.87;;;5.50;98.30;;;;;;5040590;28;20175;-49
2022/04/04 09:46:40;;;;;;;5.50;4.60;;;5.60;99.40;;;;;;5040296;28;20170;-51
2022/04/04 09:49:17;;;;;;;5.83;5.23;;;5.60;99.60;;;;;;5030539;28;20172;-49
2022/04/04 09:51:54;;;;;;;5.60;5.00;;;5.70;99.90;;;;;;5028436;28;20648;-47
2022/04/04 09:54:20;;;;;;;5.60;5.00;;;6.00;99.40;;;;;;5024002;28;20202;-47
2022/04/04 09:56:47;;;;;;;5.10;4.60;;;6.00;98.80;;;;;;5030831;28;20202;-47
2022/04/04 09:59:15;;;;;;;5.20;4.70;;;5.80;99.90;;;;;;5031162;28;20237;-49
2022/04/04 10:01:42;;;;;;;6.13;4.53;;;6.00;99.90;;;;;;5032149;28;20180;-51
2022/04/04 10:04:09;;;;;;;6.50;5.07;;;5.90;99.70;;;;;;5035175;28;20175;-47
2022/04/04 10:06:35;;;;;;;5.23;4.73;;;5.80;99.60;;;;;;5035604;28;20195;-47
2022/04/04 10:09:02;;;;;;;5.50;4.80;;;5.70;98.20;;;;;;5035564;28;20652;-47
2022/04/04 10:11:30;;;;;;;6.87;5.00;;;5.80;99.90;;;;;;5035283;28;20233;-46
2022/04/04 10:13:57;;;;;;;5.23;4.73;;;5.80;99.20;;;;;;5035140;28;20194;-49
2022/04/04 10:16:23;;;;;;;5.53;4.73;;;6.00;99.90;;;;;;5035109;28;20171;-50
2022/04/04 10:18:50;;;;;;;6.60;4.67;;;6.30;99.90;;;;;;5035300;28;20207;-47
2022/04/04 10:21:18;;;;;;;5.20;4.57;;;6.40;99.10;;;;;;5035113;28;20202;-47
2022/04/04 10:23:44;;;;;;;5.97;5.37;;;6.30;99.10;;;;;;5018924;28;20675;-49
2022/04/04 10:26:14;;;;;;;5.43;4.93;;;6.40;99.90;;;;;;5034089;28;20195;-47
2022/04/04 10:28:43;;;;;;;6.23;5.07;;;6.50;98.80;;;;;;5034348;28;20176;-53
2022/04/04 10:31:20;;;;;;;5.33;4.90;;;6.50;97.90;;;;;;5034909;28;20199;-47
2022/04/04 10:33:47;;;;;;;5.90;5.27;;;6.70;98.90;;;;;;5034677;28;20244;-48
2022/04/04 10:36:16;;;;;;;6.17;4.90;;;6.80;98.30;;;;;;5034047;28;20282;-46
2022/04/04 10:38:44;;;;;;;7.43;4.93;;;6.70;97.20;;;;;;5029206;28;20675;-50
2022/04/04 10:41:10;;;;;;;5.23;4.73;;;6.70;99.50;;;;;;5033924;28;20688;-50
2022/04/04 10:43:38;;;;;;;5.03;4.53;;;7.10;98.30;;;;;;5033108;28;20176;-49
2022/04/04 10:46:12;;;;;;;5.77;4.83;;;6.80;95.70;;;;;;5035134;28;20211;-54
2022/04/04 10:48:39;;;;;;;4.90;4.47;;;6.30;96.90;;;;;;5033959;28;20192;-49
2022/04/04 10:51:34;;;;;;;5.57;4.43;;;6.50;99.90;;;;;;5034999;28;20168;-52
2022/04/04 10:54:10;;;;;;;5.40;4.90;;;7.00;96.90;;;;;;5034628;28;20191;-50
2022/04/04 10:56:46;;;;;;;4.93;4.40;;;6.70;96.20;;;;;;5034939;28;20194;-48
2022/04/04 10:59:15;;;;;;;5.40;4.63;;;6.90;99.50;;;;;;5034888;28;20203;-48
2022/04/04 11:01:46;;;;;;;5.53;4.80;;;7.40;98.40;;;;;;5034694;28;20537;-48
2022/04/04 11:04:30;;;;;;;4.77;4.37;;;7.40;95.50;;;;;;5034209;28;20179;-51
2022/04/04 11:10:05;;;;;;;6.13;4.90;;;7.10;98.20;;;;;;5034777;28;20198;-50
2022/04/04 11:13:17;;;;;;;6.10;5.50;;;7.00;97.40;;;;;;5034093;28;20290;-48
2022/04/04 11:15:48;;;;;;;5.80;5.13;;;6.80;96.10;;;;;;5030527;28;20187;-49
2022/04/04 11:18:14;;;;;;;5.27;4.77;;;6.70;97.10;;;;;;5072437;23;20663;-54
2022/04/04 11:20:59;;;;;;;5.87;5.27;;;6.60;95.90;;;;;;5073927;28;20174;-50
2022/04/04 11:23:34;;;;;;;5.30;4.80;;;6.10;96.90;;;;;;5073217;28;20182;-52
2022/04/04 11:26:01;;;;;;;5.20;4.70;;;6.00;97.20;;;;;;5073924;28;20249;-56
2022/04/04 11:28:31;;;;;;;5.33;4.83;;;6.40;95.80;;;;;;5089823;28;20185;-54
2022/04/04 11:31:10;;;;;;;4.77;4.30;;;6.40;95.20;;;;;;5094083;28;20166;-54
2022/04/04 11:33:51;;;;;;;5.77;4.10;;;7.30;97.20;;;;;;5093576;28;20511;-57
2022/04/04 11:36:23;;;;;;;4.50;4.10;;;9.70;93.50;;;;;;5094145;28;20200;-58
2022/04/04 11:38:51;;;;;;;3.90;3.60;;;12.20;91.10;;;;;;5094206;28;20183;-54
2022/04/04 11:41:19;;;;;;;4.07;3.33;;;12.80;76.00;;;;;;5093873;28;20169;-54
2022/04/04 11:43:50;;;;;;;3.67;3.37;;;12.70;75.60;;;;;;5093712;28;20572;-54
2022/04/04 11:46:19;;;;;;;3.70;3.40;;;12.10;76.20;;;;;;5093898;28;20586;-53
2022/04/04 11:48:49;;;;;;;3.90;3.50;;;12.30;78.50;;;;;;5093944;28;20803;-53
2022/04/04 11:51:14;;;;;;;3.60;3.30;;;12.40;75.00;;;;;;5093843;28;20324;-56
2022/04/04 11:53:40;;;;;;;3.67;3.37;;;11.50;76.20;;;;;;5093471;28;20295;-53
2022/04/04 11:56:10;;;;;;;3.87;3.40;;;10.90;75.90;;;;;;5093436;28;20180;-52
2022/04/04 11:58:46;;;;;;;3.57;3.27;;;10.90;77.40;;;;;;5093316;28;20611;-53
2022/04/04 12:01:12;;;;;;;3.30;3.00;;;11.60;80.60;;;;;;5093337;28;20197;-53
2022/04/04 12:03:43;;;;;;;4.43;3.40;;;12.10;77.50;;;;;;5093543;28;20597;-53
2022/04/04 12:06:09;;;;;;;3.43;3.10;;;11.90;77.00;;;;;;5085913;28;20666;-53
2022/04/04 12:08:42;;;;;;;3.17;2.87;;;11.50;75.70;;;;;;5073152;28;20202;-52
2022/04/04 12:11:09;;;;;;;3.23;2.93;;;11.00;77.40;;;;;;5073302;28;20642;-55
2022/04/04 12:13:53;;;;;;;3.70;2.90;;;11.30;79.30;;;;;;5077908;28;20287;-55
2022/04/04 12:16:19;;;;;;;4.03;3.07;;;11.90;76.80;;;;;;5083534;28;20175;-52
2022/04/04 12:18:55;;;;;;;3.20;3.00;;;12.50;76.50;;;;;;5092868;28;20710;-52
2022/04/04 12:21:21;;;;;;;3.17;2.90;;;12.90;78.40;;;;;;5093452;28;20174;-55
2022/04/04 12:26:31;;;;;;;3.20;2.90;;;12.80;70.30;;;;;;5081027;28;20231;-54
2022/04/04 12:28:57;;;;;;;3.50;3.20;;;12.10;70.80;;;;;;5072834;28;20211;-55
2022/04/04 12:31:27;;;;;;;5.83;3.33;;;12.00;77.50;;;;;;5086856;28;20755;-51
2022/04/04 12:34:08;;;;;;;3.80;3.43;;;12.40;76.00;;;;;;5092716;28;20193;-57
2022/04/04 12:36:40;;;;;;;4.10;3.47;;;12.20;75.80;;;;;;5092505;28;20239;-55
2022/04/04 12:39:18;;;;;;;3.97;3.40;;;11.40;75.10;;;;;;5097530;28;20182;-56
2022/04/04 12:41:50;;;;;;;4.00;3.70;;;10.50;77.70;;;;;;5089835;28;20189;-58
2022/04/04 12:44:23;;;;;;;3.93;3.63;;;10.00;78.50;;;;;;5073080;28;20171;-57
2022/04/04 12:46:49;;;;;;;4.10;3.70;;;9.80;79.70;;;;;;5076968;28;20181;-54
2022/04/04 12:49:22;;;;;;;4.33;3.93;;;10.00;77.40;;;;;;5091730;28;20180;-53
2022/04/04 12:51:58;;;;;;;3.80;3.50;;;9.70;78.90;;;;;;5075817;28;20261;-54
2022/04/04 12:54:30;;;;;;;4.30;3.93;;;9.10;79.40;;;;;;5105243;28;20173;-55
2022/04/04 12:56:57;;;;;;;4.23;3.83;;;9.20;89.20;;;;;;5103764;28;20251;-58
2022/04/04 12:59:25;;;;;;;4.50;4.10;;;;;;;;;;5091882;28;20717;-57
2022/04/04 13:02:12;;;;;;;5.10;4.60;;;8.50;82.80;;;;;;5070471;28;20173;-55
2022/04/04 13:04:38;;;;;;;4.70;4.30;;;8.20;89.70;;;;;;5089134;28;20260;-54
2022/04/04 13:07:13;;;;;;;4.47;3.90;;;7.90;85.70;;;;;;5111765;27;20268;-57